Time;durP1;ratioP1;P1;durP2;ratioP2;P2;SDS_P1;SDS_P2;PMS_P1;PMS_P2;Temp;Humidity;BMP_temperature;BMP_pressure;BME280_temperature;BME280_humidity;BME280_pressure;Samples;Min_cycle;Max_cycle;Signal;HPM_P1;HPM_P2
2022/06/02 00:02:43;;;;;;;2.45;2.17;;;18.30;38.40;;;;;;5034317;28;20656;-39
2022/06/02 00:05:28;;;;;;;2.65;2.13;;;18.30;38.50;;;;;;5034171;28;20331;-39
2022/06/02 00:08:04;;;;;;;3.97;2.55;;;18.30;39.10;;;;;;5034370;28;20522;-38
2022/06/02 00:10:50;;;;;;;2.72;2.33;;;18.20;38.50;;;;;;5034268;28;20173;-38
2022/06/02 00:13:41;;;;;;;3.33;2.78;;;18.30;38.60;;;;;;5034283;28;20150;-37
2022/06/02 00:16:25;;;;;;;2.85;2.35;;;18.30;38.60;;;;;;5034071;28;20193;-39
2022/06/02 00:18:59;;;;;;;2.60;2.20;;;18.20;38.70;;;;;;5034667;28;20232;-38
2022/06/02 00:21:42;;;;;;;3.53;2.70;;;18.20;38.70;;;;;;5032575;28;20181;-38
2022/06/02 00:24:40;;;;;;;3.10;2.47;;;18.30;38.60;;;;;;5035705;28;20604;-38
2022/06/02 00:27:34;;;;;;;3.00;2.50;;;18.30;38.60;;;;;;5033953;28;20174;-37
2022/06/02 00:30:21;;;;;;;4.28;3.10;;;18.30;38.60;;;;;;5033958;28;20202;-38
2022/06/02 00:33:11;;;;;;;3.13;2.47;;;18.30;39.10;;;;;;5033865;28;20645;-38
2022/06/02 00:36:00;;;;;;;2.40;2.00;;;18.30;39.40;;;;;;5033349;28;20218;-38
2022/06/02 00:38:37;;;;;;;3.83;3.53;;;18.30;39.30;;;;;;5033612;28;20158;-38
2022/06/02 00:41:14;;;;;;;3.33;3.03;;;18.20;39.30;;;;;;5033831;28;20215;-38
2022/06/02 00:44:01;;;;;;;3.65;3.33;;;18.20;39.50;;;;;;5033506;28;20201;-38
2022/06/02 00:46:53;;;;;;;3.20;2.75;;;18.10;39.40;;;;;;5033495;28;20669;-36
2022/06/02 00:49:43;;;;;;;4.18;3.78;;;18.00;39.60;;;;;;5033642;28;20194;-38
2022/06/02 00:52:12;;;;;;;3.28;2.70;;;18.00;39.60;;;;;;5033327;28;20216;-38
2022/06/02 00:57:37;;;;;;;4.20;3.40;;;17.90;40.00;;;;;;5033188;28;20534;-39
2022/06/02 01:00:11;;;;;;;5.65;4.53;;;17.90;40.00;;;;;;5033206;28;20188;-38
2022/06/02 01:03:23;;;;;;;3.97;3.30;;;17.90;40.00;;;;;;5033107;28;20197;-39
2022/06/02 01:06:23;;;;;;;3.55;2.88;;;17.90;40.00;;;;;;5030630;28;20197;-38
2022/06/02 01:09:10;;;;;;;4.90;3.15;;;17.90;40.10;;;;;;5033045;28;20535;-38
2022/06/02 01:11:53;;;;;;;3.33;3.00;;;17.90;40.20;;;;;;5033275;28;20211;-38
2022/06/02 01:15:01;;;;;;;4.63;3.03;;;17.90;40.40;;;;;;5032829;28;20162;-37
2022/06/02 01:17:35;;;;;;;3.70;2.72;;;17.90;40.40;;;;;;5018747;28;20708;-38
2022/06/02 01:20:13;;;;;;;3.40;3.10;;;17.90;40.30;;;;;;5033149;28;20189;-38
2022/06/02 01:23:12;;;;;;;3.70;3.30;;;17.80;40.60;;;;;;5033100;28;20166;-38
2022/06/02 01:26:06;;;;;;;3.22;2.92;;;17.80;41.40;;;;;;5032536;28;20668;-38
2022/06/02 01:29:04;;;;;;;3.55;3.13;;;17.80;41.50;;;;;;5032622;28;20232;-39
2022/06/02 01:31:44;;;;;;;4.50;3.70;;;17.80;41.90;;;;;;5018298;28;20186;-38
2022/06/02 01:34:45;;;;;;;4.40;2.65;;;17.80;42.10;;;;;;5032225;28;20609;-38
2022/06/02 01:37:35;;;;;;;3.45;2.80;;;17.80;41.90;;;;;;5032529;28;20541;-39
2022/06/02 01:40:23;;;;;;;3.70;3.22;;;17.80;42.00;;;;;;5032471;28;20223;-37
2022/06/02 01:43:13;;;;;;;4.55;3.42;;;17.80;42.20;;;;;;5032586;28;20182;-38
2022/06/02 01:46:01;;;;;;;2.70;2.20;;;17.80;42.80;;;;;;5032210;28;20190;-38
2022/06/02 01:48:42;;;;;;;4.18;2.65;;;17.70;42.30;;;;;;5032444;28;20197;-37
2022/06/02 01:51:16;;;;;;;7.53;2.65;;;17.70;42.30;;;;;;5032500;28;20158;-38
2022/06/02 01:53:45;;;;;;;2.83;2.55;;;17.60;42.40;;;;;;5032563;28;20223;-37
2022/06/02 01:56:10;;;;;;;2.95;2.63;;;17.60;42.30;;;;;;5032349;28;20186;-38
2022/06/02 01:58:48;;;;;;;3.03;2.73;;;17.60;42.70;;;;;;5032202;28;20186;-37
2022/06/02 02:01:55;;;;;;;3.13;2.83;;;17.60;42.60;;;;;;5032515;28;20188;-37
2022/06/02 02:04:46;;;;;;;2.85;2.45;;;17.60;42.60;;;;;;5026299;28;20208;-38
2022/06/02 02:07:41;;;;;;;2.30;2.00;;;17.60;42.80;;;;;;5032198;28;20618;-38
2022/06/02 02:10:39;;;;;;;3.03;2.40;;;17.50;42.90;;;;;;5032045;28;20562;-37
2022/06/02 02:13:38;;;;;;;3.83;2.28;;;17.50;42.80;;;;;;5000706;28;20184;-37
2022/06/02 02:16:31;;;;;;;3.40;2.30;;;17.40;42.80;;;;;;5032218;28;20197;-37
2022/06/02 02:19:35;;;;;;;3.85;2.60;;;17.40;42.60;;;;;;5032159;28;20154;-38
2022/06/02 02:22:07;;;;;;;3.60;2.20;;;17.40;42.70;;;;;;5032327;28;20182;-38
2022/06/02 02:24:59;;;;;;;3.08;2.42;;;17.30;42.70;;;;;;5032039;28;20206;-38
2022/06/02 02:27:30;;;;;;;2.70;2.17;;;17.30;42.60;;;;;;5031910;28;20182;-38
2022/06/02 02:29:58;;;;;;;2.95;2.65;;;17.20;42.70;;;;;;5031875;28;20225;-37
2022/06/02 02:32:46;;;;;;;2.65;2.22;;;17.10;42.50;;;;;;5031946;28;20340;-38
2022/06/02 02:35:24;;;;;;;2.80;2.15;;;17.00;42.60;;;;;;5031684;28;20320;-38
2022/06/02 02:37:56;;;;;;;3.58;2.25;;;16.90;42.80;;;;;;5031777;28;20182;-38
2022/06/02 02:40:35;;;;;;;3.47;2.58;;;16.80;42.80;;;;;;5031977;28;20269;-38
2022/06/02 02:43:09;;;;;;;2.60;1.85;;;16.80;42.80;;;;;;5031848;28;20184;-38
2022/06/02 02:45:54;;;;;;;3.13;2.28;;;16.70;42.80;;;;;;5033572;28;20208;-38
2022/06/02 02:48:37;;;;;;;4.30;3.08;;;16.70;42.90;;;;;;5035627;28;20743;-37
2022/06/02 02:51:09;;;;;;;3.70;2.40;;;16.60;42.80;;;;;;5035726;28;20216;-38
2022/06/02 02:53:47;;;;;;;2.65;2.45;;;16.60;42.80;;;;;;5035676;28;20169;-37
2022/06/02 02:56:35;;;;;;;4.18;2.65;;;16.60;42.90;;;;;;5035392;28;20665;-38
2022/06/02 02:59:22;;;;;;;3.33;2.60;;;16.50;43.10;;;;;;5035495;28;20196;-38
2022/06/02 03:02:11;;;;;;;2.55;2.35;;;16.40;43.90;;;;;;5035458;28;20224;-37
2022/06/02 03:05:33;;;;;;;3.63;3.03;;;16.30;43.50;;;;;;5035333;28;20211;-38
2022/06/02 03:08:09;;;;;;;3.70;2.38;;;16.30;43.40;;;;;;5019231;28;20549;-39
2022/06/02 03:10:38;;;;;;;3.45;2.90;;;16.20;44.00;;;;;;5034025;28;20177;-38
2022/06/02 03:13:12;;;;;;;3.10;2.80;;;16.20;43.60;;;;;;5035352;28;20170;-38
2022/06/02 03:16:00;;;;;;;3.30;2.67;;;16.20;43.50;;;;;;5034991;28;20185;-36
2022/06/02 03:19:17;;;;;;;3.13;2.08;;;16.30;43.40;;;;;;5035084;28;20158;-38
2022/06/02 03:21:54;;;;;;;3.65;2.78;;;16.30;43.40;;;;;;5012283;28;20653;-38
2022/06/02 03:24:22;;;;;;;3.53;2.88;;;16.20;43.40;;;;;;5034807;28;20213;-38
2022/06/02 03:27:04;;;;;;;2.97;2.47;;;16.20;43.40;;;;;;5034969;28;20173;-38
2022/06/02 03:29:33;;;;;;;2.47;2.03;;;16.20;43.50;;;;;;5034987;28;20213;-37
2022/06/02 03:32:02;;;;;;;5.45;3.63;;;16.20;43.30;;;;;;5035044;28;20240;-37
2022/06/02 03:35:02;;;;;;;3.20;2.58;;;16.20;43.30;;;;;;5035052;28;20201;-38
2022/06/02 03:38:05;;;;;;;3.03;2.50;;;16.20;43.40;;;;;;5034753;28;20170;-37
2022/06/02 03:40:37;;;;;;;3.00;2.05;;;16.20;43.60;;;;;;5034701;28;20180;-37
2022/06/02 03:43:12;;;;;;;4.60;3.78;;;16.20;43.80;;;;;;5034825;28;20521;-37
2022/06/02 03:45:44;;;;;;;3.00;2.70;;;16.20;43.80;;;;;;5034516;28;20669;-37
2022/06/02 03:48:47;;;;;;;4.90;3.05;;;16.20;44.00;;;;;;5066074;22;20256;-42
2022/06/02 03:51:21;;;;;;;3.00;2.63;;;16.20;44.00;;;;;;5055502;28;20181;-41
2022/06/02 03:53:52;;;;;;;4.78;3.30;;;16.20;44.30;;;;;;5054332;28;20173;-41
2022/06/02 03:56:37;;;;;;;3.05;2.58;;;16.30;44.20;;;;;;5054042;28;20157;-42
2022/06/02 03:59:25;;;;;;;4.88;2.50;;;16.30;44.40;;;;;;5054199;28;20548;-42
2022/06/02 04:02:05;;;;;;;3.00;2.70;;;16.40;44.10;;;;;;5054430;28;20177;-41
2022/06/02 04:04:55;;;;;;;3.47;3.08;;;16.40;44.10;;;;;;5054308;28;20170;-41
2022/06/02 04:07:51;;;;;;;4.50;4.10;;;16.50;44.10;;;;;;5053930;28;20189;-41
2022/06/02 04:10:26;;;;;;;3.78;3.25;;;16.50;44.00;;;;;;5053983;28;20186;-42
2022/06/02 04:13:39;;;;;;;5.07;3.65;;;16.50;44.10;;;;;;5054168;28;20184;-42
2022/06/02 04:16:15;;;;;;;5.05;3.58;;;16.50;44.10;;;;;;5054050;28;20273;-42
2022/06/02 04:22:17;;;;;;;3.42;2.90;;;16.70;44.10;;;;;;5054072;28;20737;-42
2022/06/02 04:25:00;;;;;;;3.80;2.78;;;16.80;44.10;;;;;;5053101;28;20188;-42
2022/06/02 04:27:32;;;;;;;3.22;2.92;;;16.80;43.90;;;;;;5053684;28;20201;-42
2022/06/02 04:30:41;;;;;;;3.92;3.60;;;16.90;43.80;;;;;;5053646;28;20275;-41
2022/06/02 04:33:14;;;;;;;4.22;3.80;;;16.90;44.10;;;;;;4965078;28;20191;-42
2022/06/02 04:36:08;;;;;;;4.53;3.45;;;17.00;44.10;;;;;;5053685;28;20236;-42
2022/06/02 04:38:51;;;;;;;4.10;3.50;;;17.10;44.30;;;;;;5053197;28;20247;-42
2022/06/02 04:41:26;;;;;;;4.40;3.35;;;17.10;43.90;;;;;;5053467;28;20185;-42
2022/06/02 04:44:14;;;;;;;6.05;4.63;;;17.20;44.10;;;;;;5053684;28;20176;-42
2022/06/02 04:46:59;;;;;;;8.68;4.07;;;17.30;43.70;;;;;;5053270;28;20221;-42
2022/06/02 04:49:47;;;;;;;4.47;4.03;;;17.30;43.50;;;;;;5053367;28;20209;-42
2022/06/02 04:52:22;;;;;;;7.55;4.15;;;17.40;43.20;;;;;;5053357;28;20180;-42
2022/06/02 04:55:20;;;;;;;4.57;4.18;;;17.40;43.30;;;;;;5053085;28;20265;-42
2022/06/02 04:58:08;;;;;;;5.05;3.95;;;17.50;43.30;;;;;;5052969;28;20183;-42
2022/06/02 05:00:52;;;;;;;5.68;3.70;;;17.60;43.50;;;;;;5053069;28;20645;-42
2022/06/02 05:03:30;;;;;;;5.38;3.40;;;17.60;43.30;;;;;;5053273;28;20162;-42
2022/06/02 05:06:09;;;;;;;5.05;4.47;;;17.60;43.50;;;;;;5052835;28;20188;-42
2022/06/02 05:09:11;;;;;;;4.55;4.15;;;17.60;42.80;;;;;;5052231;28;20212;-42
2022/06/02 05:11:46;;;;;;;4.05;3.40;;;17.70;42.80;;;;;;5052857;28;20199;-42
2022/06/02 05:14:27;;;;;;;5.32;4.07;;;17.80;42.40;;;;;;5052956;28;20196;-42
2022/06/02 05:16:58;;;;;;;4.75;3.53;;;17.80;43.20;;;;;;5052587;28;20665;-42
2022/06/02 05:19:37;;;;;;;4.28;3.53;;;17.80;42.10;;;;;;5052747;28;20185;-42
2022/06/02 05:22:02;;;;;;;4.85;3.55;;;17.90;42.30;;;;;;5052659;28;20256;-41
2022/06/02 05:24:50;;;;;;;4.57;3.77;;;17.90;42.40;;;;;;5052418;28;20711;-41
2022/06/02 05:27:28;;;;;;;4.03;3.70;;;18.00;42.10;;;;;;5052457;28;20199;-42
2022/06/02 05:29:56;;;;;;;4.90;3.65;;;18.10;42.10;;;;;;5052547;28;20209;-42
2022/06/02 05:32:34;;;;;;;4.35;3.42;;;18.20;42.10;;;;;;5052509;28;20176;-42
2022/06/02 05:35:08;;;;;;;4.80;4.13;;;18.20;41.70;;;;;;5052371;28;20169;-41
2022/06/02 05:37:41;;;;;;;5.20;3.60;;;18.20;41.70;;;;;;5052401;28;20192;-41
2022/06/02 05:40:30;;;;;;;4.00;3.60;;;18.20;42.00;;;;;;5052378;28;20192;-40
2022/06/02 05:43:05;;;;;;;4.38;3.67;;;18.30;41.80;;;;;;5052310;28;20173;-40
2022/06/02 05:45:50;;;;;;;3.40;3.10;;;18.40;41.80;;;;;;5052424;28;20252;-40
2022/06/02 05:48:46;;;;;;;6.00;4.57;;;18.50;41.50;;;;;;5052096;28;20201;-40
2022/06/02 05:51:38;;;;;;;6.30;4.65;;;18.50;41.30;;;;;;5044065;28;20680;-40
2022/06/02 05:54:26;;;;;;;4.93;3.78;;;18.60;41.30;;;;;;5052023;28;20169;-39
2022/06/02 05:56:51;;;;;;;4.93;4.13;;;18.60;40.90;;;;;;5052081;28;20209;-41
2022/06/02 05:59:49;;;;;;;8.40;4.40;;;18.60;41.00;;;;;;5052318;28;20695;-40
2022/06/02 06:02:48;;;;;;;4.60;4.10;;;18.60;40.80;;;;;;5052130;28;20481;-40
2022/06/02 06:05:17;;;;;;;5.22;4.43;;;18.70;41.10;;;;;;5051965;28;20642;-40
2022/06/02 06:07:54;;;;;;;4.13;3.67;;;18.70;40.80;;;;;;5051824;28;20284;-40
2022/06/02 06:10:39;;;;;;;4.45;3.80;;;18.80;41.00;;;;;;5052076;28;20205;-40
2022/06/02 06:13:42;;;;;;;4.78;3.83;;;18.90;41.00;;;;;;5051993;28;20157;-41
2022/06/02 06:16:32;;;;;;;5.57;4.60;;;19.00;40.60;;;;;;5051816;28;20173;-40
2022/06/02 06:19:21;;;;;;;5.68;4.72;;;19.10;40.70;;;;;;5051800;28;20799;-40
2022/06/02 06:21:53;;;;;;;5.20;4.22;;;19.20;40.40;;;;;;5055809;28;20226;-40
2022/06/02 06:24:37;;;;;;;5.50;4.45;;;19.20;40.60;;;;;;5055853;28;20177;-40
2022/06/02 06:27:22;;;;;;;4.13;3.33;;;19.30;40.20;;;;;;5055780;28;20660;-41
2022/06/02 06:30:13;;;;;;;4.75;3.85;;;19.40;40.00;;;;;;5055922;28;20291;-40
2022/06/02 06:32:50;;;;;;;4.75;4.22;;;19.50;39.90;;;;;;5055906;28;20160;-40
2022/06/02 06:35:34;;;;;;;4.57;3.95;;;19.50;39.30;;;;;;5055609;28;20173;-40
2022/06/02 06:38:25;;;;;;;5.60;4.35;;;19.60;39.50;;;;;;5055523;28;20210;-41
2022/06/02 06:41:11;;;;;;;3.65;3.20;;;19.70;39.50;;;;;;5009142;28;20239;-41
2022/06/02 06:44:02;;;;;;;4.53;3.90;;;19.80;38.90;;;;;;5055592;28;20234;-41
2022/06/02 06:46:41;;;;;;;4.25;3.42;;;19.90;38.80;;;;;;5055568;28;20223;-41
2022/06/02 06:49:23;;;;;;;3.50;3.17;;;19.90;38.90;;;;;;5055547;28;20193;-41
2022/06/02 06:52:32;;;;;;;3.33;2.72;;;20.00;38.40;;;;;;5055356;28;20173;-41
2022/06/02 06:55:43;;;;;;;3.10;2.75;;;20.10;38.50;;;;;;5007693;28;20544;-41
2022/06/02 06:58:35;;;;;;;4.65;3.95;;;20.20;39.40;;;;;;5029968;28;20201;-41
2022/06/02 07:01:30;;;;;;;6.55;3.90;;;20.40;38.90;;;;;;5055514;28;20184;-41
2022/06/02 07:04:45;;;;;;;4.38;3.45;;;20.50;38.60;;;;;;5055557;28;20153;-41
2022/06/02 07:07:32;;;;;;;3.95;3.20;;;20.60;38.20;;;;;;4980508;28;20197;-41
2022/06/02 07:10:05;;;;;;;3.88;3.35;;;20.60;37.90;;;;;;5055162;28;20181;-43
2022/06/02 07:13:01;;;;;;;3.65;3.20;;;20.00;37.50;;;;;;5055176;28;20498;-43
2022/06/02 07:15:46;;;;;;;5.53;3.95;;;20.50;37.90;;;;;;5055226;28;20154;-43
2022/06/02 07:18:15;;;;;;;3.78;2.90;;;20.50;37.40;;;;;;5054876;28;20197;-41
2022/06/02 07:20:58;;;;;;;4.25;3.35;;;20.50;37.70;;;;;;5054941;28;20204;-41
2022/06/02 07:23:45;;;;;;;4.40;3.40;;;20.60;37.70;;;;;;5055265;28;20168;-40
2022/06/02 07:26:41;;;;;;;4.43;3.40;;;20.70;37.70;;;;;;5055085;28;20166;-41
2022/06/02 07:29:29;;;;;;;4.13;2.80;;;20.80;37.10;;;;;;5054683;28;20205;-41
2022/06/02 07:32:26;;;;;;;3.58;3.10;;;20.80;37.30;;;;;;5054295;28;20186;-41
2022/06/02 07:35:03;;;;;;;3.42;2.70;;;21.00;37.00;;;;;;5054551;28;20149;-41
2022/06/02 07:37:34;;;;;;;2.88;2.58;;;20.90;36.60;;;;;;5054441;28;20676;-41
2022/06/02 07:40:17;;;;;;;3.65;3.33;;;20.90;36.40;;;;;;5054613;28;20177;-41
2022/06/02 07:43:16;;;;;;;3.17;2.88;;;21.00;36.00;;;;;;5054560;28;20160;-41
2022/06/02 07:46:03;;;;;;;3.92;3.10;;;21.00;36.50;;;;;;4999956;28;20580;-40
2022/06/02 07:49:08;;;;;;;5.15;2.78;;;21.10;34.70;;;;;;5054124;28;20205;-41
2022/06/02 07:51:37;;;;;;;3.10;2.33;;;21.30;36.10;;;;;;4954021;29;20176;-41
2022/06/02 07:54:14;;;;;;;4.45;3.55;;;21.50;36.30;;;;;;5038657;28;20220;-41
2022/06/02 07:56:52;;;;;;;4.53;3.00;;;21.70;36.20;;;;;;5054129;28;20200;-42
2022/06/02 07:59:41;;;;;;;2.63;2.22;;;21.80;35.80;;;;;;5054358;28;20434;-41
2022/06/02 08:02:31;;;;;;;3.20;2.00;;;21.90;35.30;;;;;;5052494;28;20181;-41
2022/06/02 08:05:19;;;;;;;2.88;2.10;;;22.00;35.20;;;;;;5053914;28;20483;-41
2022/06/02 08:08:13;;;;;;;4.28;2.67;;;22.10;34.50;;;;;;5053951;28;20197;-41
2022/06/02 08:11:13;;;;;;;2.85;1.63;;;22.20;34.60;;;;;;5054068;28;20654;-41
2022/06/02 08:14:22;;;;;;;3.93;2.07;;;22.30;35.10;;;;;;5054023;28;20185;-41
2022/06/02 08:16:56;;;;;;;3.53;2.20;;;22.20;34.00;;;;;;5054118;28;20431;-41
2022/06/02 08:19:33;;;;;;;2.10;1.50;;;22.10;32.80;;;;;;5053783;28;20408;-42
2022/06/02 08:22:03;;;;;;;1.80;1.23;;;22.10;33.20;;;;;;5054118;28;20388;-43
2022/06/02 08:25:01;;;;;;;3.00;2.33;;;22.10;32.40;;;;;;5053652;28;20400;-43
2022/06/02 08:27:40;;;;;;;2.43;1.50;;;22.10;32.70;;;;;;5053648;28;20426;-42
2022/06/02 08:30:27;;;;;;;2.73;1.80;;;22.00;31.60;;;;;;5053891;28;20440;-42
2022/06/02 08:33:00;;;;;;;3.07;1.90;;;22.00;31.30;;;;;;5053674;28;20393;-42
2022/06/02 08:35:45;;;;;;;3.20;2.00;;;22.00;31.90;;;;;;5053441;28;20814;-43
2022/06/02 08:38:27;;;;;;;2.40;1.53;;;22.10;32.50;;;;;;5053375;28;20420;-43
2022/06/02 08:41:30;;;;;;;3.50;1.63;;;22.20;33.20;;;;;;5053539;28;20461;-42
2022/06/02 08:44:12;;;;;;;3.80;2.40;;;22.40;33.30;;;;;;5052806;28;20769;-43
2022/06/02 08:46:59;;;;;;;2.20;1.67;;;22.50;33.80;;;;;;5053320;28;20534;-43
2022/06/02 08:49:45;;;;;;;2.40;1.73;;;22.70;33.40;;;;;;5053280;28;20542;-42
2022/06/02 08:52:39;;;;;;;2.53;1.60;;;22.80;32.60;;;;;;5053257;28;20403;-43
2022/06/02 08:55:29;;;;;;;3.00;1.83;;;22.90;32.40;;;;;;5052929;28;20445;-43
2022/06/02 08:58:11;;;;;;;1.90;1.37;;;23.00;31.70;;;;;;5053121;28;20434;-43
2022/06/02 09:00:55;;;;;;;2.43;1.83;;;23.10;31.20;;;;;;5053163;28;20439;-43
2022/06/02 09:03:57;;;;;;;3.07;2.37;;;23.20;32.20;;;;;;5053266;28;20399;-43
2022/06/02 09:06:38;;;;;;;2.30;1.57;;;23.30;31.00;;;;;;5053029;28;20416;-43
2022/06/02 09:09:19;;;;;;;3.73;1.80;;;23.30;32.10;;;;;;5052863;28;20532;-43
2022/06/02 09:12:15;;;;;;;2.07;1.50;;;23.30;31.80;;;;;;5052859;28;20399;-42
2022/06/02 09:15:20;;;;;;;2.40;1.80;;;23.10;30.30;;;;;;5052821;28;20441;-43
2022/06/02 09:17:57;;;;;;;3.40;2.10;;;22.80;30.40;;;;;;5052690;28;20420;-42
2022/06/02 09:20:46;;;;;;;2.07;1.57;;;22.80;31.30;;;;;;5052750;28;20911;-42
2022/06/02 09:23:49;;;;;;;2.43;2.20;;;22.80;31.10;;;;;;5053006;28;20402;-43
2022/06/02 09:26:30;;;;;;;2.40;2.20;;;22.70;30.60;;;;;;5052411;28;20918;-43
2022/06/02 09:29:01;;;;;;;1.93;1.70;;;22.70;30.60;;;;;;5052722;28;20454;-43
2022/06/02 09:31:39;;;;;;;3.00;2.70;;;22.70;30.60;;;;;;5052590;28;20443;-43
2022/06/02 09:34:14;;;;;;;2.73;2.53;;;22.80;31.10;;;;;;5052364;28;20407;-42
2022/06/02 09:37:01;;;;;;;2.43;2.17;;;23.00;31.40;;;;;;5052271;28;20427;-41
2022/06/02 09:39:45;;;;;;;3.77;2.10;;;23.30;31.60;;;;;;5052464;28;20427;-41
2022/06/02 09:42:32;;;;;;;2.97;2.20;;;23.50;31.60;;;;;;5052709;28;20392;-41
2022/06/02 09:45:43;;;;;;;3.70;2.40;;;23.70;31.80;;;;;;5052459;28;20392;-41
2022/06/02 09:48:36;;;;;;;3.50;2.30;;;23.80;30.50;;;;;;5052032;28;20461;-41
2022/06/02 09:51:50;;;;;;;3.30;3.00;;;23.80;31.20;;;;;;5052203;28;20423;-41
2022/06/02 09:54:37;;;;;;;2.57;2.37;;;23.70;30.90;;;;;;5030611;28;20415;-40
2022/06/02 10:00:27;;;;;;;3.23;2.43;;;23.70;30.80;;;;;;5052161;28;20422;-41
2022/06/02 10:03:17;;;;;;;2.40;1.97;;;23.80;31.30;;;;;;5052300;28;20408;-41
2022/06/02 10:05:48;;;;;;;2.83;2.53;;;24.00;31.10;;;;;;5052074;28;20408;-41
2022/06/02 10:08:58;;;;;;;3.23;2.53;;;24.20;30.90;;;;;;5074652;22;20486;-37
2022/06/02 10:11:24;;;;;;;3.37;2.20;;;24.30;30.60;;;;;;5013289;28;20435;-37
2022/06/02 10:14:27;;;;;;;3.30;2.70;;;24.20;29.70;;;;;;5034493;28;20958;-37
2022/06/02 10:17:29;;;;;;;2.30;1.90;;;24.30;29.60;;;;;;5036737;28;20190;-38
2022/06/02 10:19:54;;;;;;;2.53;2.33;;;24.30;28.70;;;;;;5032592;28;20418;-39
2022/06/02 10:22:20;;;;;;;2.60;2.03;;;24.40;28.50;;;;;;5032103;28;20416;-37
2022/06/02 10:25:16;;;;;;;2.43;2.13;;;24.60;29.30;;;;;;5032035;28;20200;-37
2022/06/02 10:27:47;;;;;;;2.90;2.50;;;24.80;29.70;;;;;;5031911;28;20230;-38
2022/06/02 10:30:27;;;;;;;2.70;1.97;;;24.90;29.10;;;;;;5031825;28;20448;-38
2022/06/02 10:32:59;;;;;;;3.00;2.50;;;24.90;28.50;;;;;;5031923;28;20895;-37
2022/06/02 10:36:04;;;;;;;3.07;2.07;;;24.80;28.40;;;;;;5031659;28;20780;-38
2022/06/02 10:39:07;;;;;;;2.90;2.30;;;24.80;29.30;;;;;;5031799;28;20483;-37
2022/06/02 10:42:11;;;;;;;2.43;2.20;;;25.00;29.30;;;;;;5031836;28;20415;-38
2022/06/02 10:44:46;;;;;;;1.90;1.60;;;25.10;28.20;;;;;;5031563;28;20396;-38
2022/06/02 10:47:40;;;;;;;3.10;2.83;;;25.20;28.10;;;;;;5032087;28;20416;-38
2022/06/02 10:50:29;;;;;;;1.90;1.47;;;25.20;27.00;;;;;;5031663;28;20447;-37
2022/06/02 10:53:13;;;;;;;2.30;1.73;;;25.30;27.70;;;;;;5032003;28;20476;-36
2022/06/02 10:56:13;;;;;;;2.30;1.90;;;25.40;28.10;;;;;;5031588;28;20733;-37
2022/06/02 10:58:57;;;;;;;2.60;2.37;;;25.60;26.80;;;;;;5031543;28;20396;-38
2022/06/02 11:02:19;;;;;;;2.50;2.17;;;25.70;28.10;;;;;;5031665;28;20377;-38
2022/06/02 11:05:03;;;;;;;2.50;2.10;;;25.80;27.30;;;;;;5029929;28;20452;-39
2022/06/02 11:08:17;;;;;;;3.60;3.30;;;25.80;26.60;;;;;;5034469;28;20475;-39
2022/06/02 11:11:07;;;;;;;2.63;2.40;;;25.50;25.80;;;;;;5035241;28;20479;-39
2022/06/02 11:13:47;;;;;;;2.43;2.07;;;25.40;27.20;;;;;;5035261;28;20435;-37
2022/06/02 11:16:50;;;;;;;3.20;2.90;;;25.50;26.90;;;;;;5035055;28;20432;-38
2022/06/02 11:19:36;;;;;;;3.63;2.17;;;25.50;26.30;;;;;;5035053;28;20900;-39
2022/06/02 11:22:16;;;;;;;2.27;2.03;;;25.50;26.90;;;;;;5035356;28;20466;-39
2022/06/02 11:24:42;;;;;;;3.40;2.90;;;24.70;26.30;;;;;;5034939;28;20807;-39
2022/06/02 11:27:41;;;;;;;2.70;2.50;;;25.70;26.80;;;;;;5034922;28;20420;-39
2022/06/02 11:30:44;;;;;;;2.60;2.40;;;25.60;26.70;;;;;;5035221;28;20673;-38
2022/06/02 11:33:28;;;;;;;2.63;2.43;;;25.60;26.70;;;;;;5034793;28;20483;-38
2022/06/02 11:36:47;;;;;;;2.90;2.50;;;25.40;27.20;;;;;;5034584;28;20424;-39
2022/06/02 11:39:31;;;;;;;3.27;2.97;;;25.20;26.60;;;;;;4973686;28;20444;-38
2022/06/02 11:42:15;;;;;;;2.53;2.20;;;25.10;27.00;;;;;;5034740;28;20476;-39
2022/06/02 11:45:10;;;;;;;3.70;3.40;;;25.00;27.30;;;;;;5034510;28;20454;-39
2022/06/02 11:47:56;;;;;;;2.83;2.57;;;24.90;27.10;;;;;;5034360;28;20508;-39
2022/06/02 11:50:48;;;;;;;3.70;3.40;;;24.90;27.80;;;;;;5034411;28;20951;-38
2022/06/02 11:53:36;;;;;;;3.73;2.97;;;24.90;27.10;;;;;;5011242;28;20915;-38
2022/06/02 11:56:09;;;;;;;2.83;2.53;;;25.10;28.00;;;;;;5034301;28;20978;-38
2022/06/02 11:59:06;;;;;;;3.40;3.10;;;25.40;28.40;;;;;;5034187;28;20428;-39
2022/06/02 12:02:10;;;;;;;2.80;2.60;;;25.70;27.90;;;;;;5034602;28;20480;-38
2022/06/02 12:04:39;;;;;;;2.70;2.50;;;26.00;25.70;;;;;;5016439;28;20416;-39
2022/06/02 12:07:29;;;;;;;3.10;2.80;;;26.10;26.40;;;;;;5033967;28;20432;-38
2022/06/02 12:10:12;;;;;;;2.67;2.47;;;26.20;23.50;;;;;;5034287;28;20436;-38
2022/06/02 12:12:59;;;;;;;2.63;2.43;;;26.20;25.50;;;;;;5034167;28;20446;-38
2022/06/02 12:15:49;;;;;;;3.33;2.27;;;26.30;24.40;;;;;;5034285;28;20486;-39
2022/06/02 12:19:02;;;;;;;3.37;2.60;;;26.40;25.20;;;;;;5032603;28;20951;-38
2022/06/02 12:21:40;;;;;;;2.60;2.40;;;26.50;24.30;;;;;;5023200;28;20417;-38
2022/06/02 12:24:44;;;;;;;3.03;2.40;;;26.50;24.80;;;;;;5033914;28;20385;-39
2022/06/02 12:27:41;;;;;;;2.93;2.73;;;26.70;25.90;;;;;;5033894;28;20431;-38
2022/06/02 12:30:10;;;;;;;2.50;2.30;;;26.90;25.70;;;;;;5033636;28;20531;-38
2022/06/02 12:32:45;;;;;;;2.53;1.80;;;27.00;25.20;;;;;;5033748;28;20423;-39
2022/06/02 12:35:42;;;;;;;2.60;1.97;;;27.10;25.00;;;;;;5033603;28;20447;-39
2022/06/02 12:38:23;;;;;;;2.10;1.80;;;27.20;25.20;;;;;;5033518;28;20447;-38
2022/06/02 12:40:51;;;;;;;2.07;1.87;;;27.20;23.50;;;;;;5033608;28;20483;-39
2022/06/02 12:43:36;;;;;;;3.13;2.03;;;27.20;22.40;;;;;;5033709;28;20408;-39
2022/06/02 12:46:40;;;;;;;2.50;2.17;;;27.20;24.20;;;;;;5033471;28;20488;-38
2022/06/02 12:49:33;;;;;;;2.20;2.00;;;27.40;24.30;;;;;;5033297;28;20451;-39
2022/06/02 12:52:13;;;;;;;3.57;2.10;;;27.30;23.60;;;;;;5033797;28;20393;-39
2022/06/02 12:54:58;;;;;;;1.90;1.70;;;27.30;21.70;;;;;;5033607;28;20419;-38
2022/06/02 12:57:57;;;;;;;2.67;2.30;;;27.30;23.80;;;;;;5033118;28;20452;-39
2022/06/02 13:00:44;;;;;;;3.63;2.60;;;27.40;23.20;;;;;;5033288;28;20455;-39
2022/06/02 13:03:34;;;;;;;2.50;2.27;;;27.10;22.10;;;;;;5015411;28;20886;-40
2022/06/02 13:06:02;;;;;;;2.70;2.40;;;27.00;21.70;;;;;;5015282;28;20401;-39
2022/06/02 13:08:49;;;;;;;2.27;2.07;;;26.80;22.60;;;;;;5032826;28;20531;-39
2022/06/02 13:11:23;;;;;;;2.03;1.83;;;26.80;23.90;;;;;;5033043;28;20487;-39
2022/06/02 13:14:14;;;;;;;2.63;2.27;;;27.00;24.60;;;;;;5032908;28;20491;-39
2022/06/02 13:17:13;;;;;;;2.77;2.50;;;27.20;24.20;;;;;;5033095;28;20829;-38
2022/06/02 13:20:13;;;;;;;2.40;2.20;;;27.30;24.00;;;;;;5033121;28;20446;-39
2022/06/02 13:23:08;;;;;;;2.83;2.53;;;27.30;22.80;;;;;;5032743;28;20750;-39
2022/06/02 13:26:00;;;;;;;3.13;2.83;;;27.40;22.80;;;;;;5032616;28;20388;-39
2022/06/02 13:29:30;;;;;;;2.67;2.47;;;27.50;23.40;;;;;;5032195;28;20995;-39
2022/06/02 13:32:23;;;;;;;2.50;2.30;;;27.50;22.40;;;;;;4971608;28;20431;-38
2022/06/02 13:35:03;;;;;;;2.77;2.20;;;27.60;22.70;;;;;;5032413;28;20401;-39
2022/06/02 13:38:07;;;;;;;4.20;2.57;;;27.50;21.00;;;;;;5032404;28;20527;-39
2022/06/02 13:40:55;;;;;;;2.60;2.40;;;27.40;22.00;;;;;;4971334;28;20435;-38
2022/06/02 13:44:06;;;;;;;3.67;2.37;;;27.40;22.40;;;;;;5028975;28;20429;-39
2022/06/02 13:46:54;;;;;;;2.60;2.30;;;27.50;21.40;;;;;;5032281;28;20490;-38
2022/06/02 13:49:57;;;;;;;2.50;2.10;;;27.50;22.20;;;;;;5032255;28;20812;-37
2022/06/02 13:52:50;;;;;;;2.40;2.20;;;27.40;20.00;;;;;;5032517;28;20500;-38
2022/06/02 13:58:21;;;;;;;2.10;1.90;;;27.40;21.50;;;;;;5032211;28;20509;-40
2022/06/02 14:01:16;;;;;;;3.13;2.33;;;27.50;23.00;;;;;;5032246;28;20409;-39
2022/06/02 14:04:02;;;;;;;2.53;1.90;;;27.60;21.60;;;;;;5032177;28;20872;-39
2022/06/02 14:06:33;;;;;;;3.10;2.80;;;27.60;21.80;;;;;;5032056;28;20492;-39
2022/06/02 14:09:03;;;;;;;2.67;2.23;;;27.60;22.10;;;;;;5032005;28;20546;-39
2022/06/02 14:11:48;;;;;;;1.77;1.30;;;27.60;22.60;;;;;;5032107;28;20408;-39
2022/06/02 14:14:33;;;;;;;4.00;2.10;;;27.60;22.50;;;;;;5031987;28;20948;-38
2022/06/02 14:17:36;;;;;;;2.10;1.70;;;27.70;21.80;;;;;;5032100;28;20508;-39
2022/06/02 14:20:14;;;;;;;2.30;2.00;;;27.70;19.90;;;;;;5014341;28;20427;-39
2022/06/02 14:23:26;;;;;;;1.90;1.70;;;27.70;21.10;;;;;;5032000;28;20400;-39
2022/06/02 14:26:23;;;;;;;2.50;1.40;;;27.70;20.70;;;;;;5025762;28;20428;-38
2022/06/02 14:28:48;;;;;;;2.40;2.07;;;27.70;20.00;;;;;;5031869;28;20456;-39
2022/06/02 14:31:22;;;;;;;2.37;1.90;;;27.70;20.40;;;;;;5031785;28;20443;-39
2022/06/02 14:34:01;;;;;;;2.10;1.70;;;27.70;20.90;;;;;;5032123;28;20177;-39
2022/06/02 14:36:59;;;;;;;2.20;1.70;;;27.70;21.10;;;;;;5031774;28;20389;-39
2022/06/02 14:39:51;;;;;;;2.10;1.77;;;27.70;20.10;;;;;;5031825;28;20403;-38
2022/06/02 14:43:09;;;;;;;2.10;1.60;;;27.50;20.20;;;;;;5034683;28;20869;-38